createdAt,value
2022-11-30T00:00:31.920Z,4.25
2022-11-30T00:03:01.686Z,4.26
2022-11-30T00:05:32.158Z,4.26
2022-11-30T00:08:02.166Z,4.26
2022-11-30T00:10:31.272Z,4.26
2022-11-30T00:13:01.333Z,4.23
2022-11-30T00:15:29.367Z,4.25
2022-11-30T00:17:58.271Z,4.25
2022-11-30T00:20:29.572Z,4.23
2022-11-30T00:23:00.341Z,4.23
2022-11-30T00:25:29.009Z,4.22
2022-11-30T00:27:58.617Z,4.20
2022-11-30T00:30:26.987Z,4.22
2022-11-30T00:32:57.572Z,4.23
2022-11-30T00:35:27.314Z,4.22
2022-11-30T00:37:55.566Z,4.20
2022-11-30T00:40:25.014Z,4.22
2022-11-30T00:42:56.656Z,4.23
2022-11-30T00:45:24.692Z,4.22
2022-11-30T00:47:52.849Z,4.19
2022-11-30T00:50:21.633Z,4.22
2022-11-30T00:52:49.744Z,4.20
2022-11-30T00:55:17.915Z,4.19
2022-11-30T00:57:48.505Z,4.19
2022-11-30T01:00:17.739Z,4.19
2022-11-30T01:02:46.398Z,4.20
2022-11-30T01:05:16.380Z,4.22
2022-11-30T01:07:44.627Z,4.18
2022-11-30T01:10:13.282Z,4.19
2022-11-30T01:12:41.356Z,4.19
2022-11-30T01:15:12.283Z,4.16
2022-11-30T01:17:40.818Z,4.15
2022-11-30T01:20:09.437Z,4.15
2022-11-30T01:22:40.399Z,4.18
2022-11-30T01:25:09.806Z,4.18
2022-11-30T01:27:38.233Z,4.19
2022-11-30T01:30:08.992Z,4.16
2022-11-30T01:32:39.180Z,4.16
2022-11-30T01:35:10.380Z,4.16
2022-11-30T01:37:39.670Z,4.18
2022-11-30T01:40:09.241Z,4.18
2022-11-30T01:42:38.151Z,4.16
2022-11-30T01:45:08.218Z,4.16
2022-11-30T01:47:39.326Z,4.16
2022-11-30T01:50:10.587Z,4.16
2022-11-30T01:52:39.909Z,4.16
2022-11-30T01:55:16.849Z,4.16
2022-11-30T01:57:49.010Z,4.13
2022-11-30T02:00:21.136Z,4.15
2022-11-30T02:02:56.895Z,4.12
2022-11-30T02:05:26.336Z,4.12
2022-11-30T02:07:54.894Z,4.15
2022-11-30T02:10:26.604Z,4.13
2022-11-30T02:13:32.329Z,4.15
2022-11-30T02:16:08.764Z,4.13
2022-11-30T02:18:45.349Z,4.12
2022-11-30T02:21:16.341Z,4.13
2022-11-30T02:24:02.002Z,4.09
2022-11-30T02:26:50.862Z,4.10
2022-11-30T02:29:23.220Z,4.09
2022-11-30T02:31:55.105Z,4.08
2022-11-30T02:34:25.333Z,4.06
2022-11-30T02:36:53.980Z,4.05
2022-11-30T02:39:24.801Z,4.08
2022-11-30T02:41:52.988Z,4.06
2022-11-30T02:44:23.523Z,4.09
2022-11-30T02:46:57.903Z,4.05
2022-11-30T02:49:35.066Z,4.08
2022-11-30T02:52:05.287Z,4.08
2022-11-30T02:54:35.898Z,4.05
2022-11-30T02:57:05.163Z,4.05
2022-11-30T02:59:37.370Z,4.03
2022-11-30T03:02:05.301Z,4.03
2022-11-30T03:04:35.539Z,4.02
2022-11-30T03:07:04.349Z,4.01
2022-11-30T03:09:35.693Z,4.02
2022-11-30T03:12:05.509Z,4.01
2022-11-30T03:14:35.583Z,4.01
2022-11-30T03:17:04.621Z,3.99
2022-11-30T03:19:33.076Z,3.99
2022-11-30T03:22:01.682Z,3.98
2022-11-30T03:24:32.279Z,3.97
2022-11-30T03:27:01.194Z,3.98
2022-11-30T03:29:32.739Z,3.97
2022-11-30T03:32:02.067Z,3.98
2022-11-30T03:34:30.295Z,3.95
2022-11-30T03:37:00.096Z,3.95
2022-11-30T03:39:28.142Z,3.95
2022-11-30T03:41:56.153Z,3.94
2022-11-30T03:44:24.577Z,3.92
2022-11-30T03:46:54.142Z,3.92
2022-11-30T03:49:23.790Z,3.92
2022-11-30T03:51:52.014Z,3.92
2022-11-30T03:54:22.922Z,3.94
2022-11-30T03:56:50.977Z,3.89
2022-11-30T03:59:25.762Z,3.91
2022-11-30T04:01:54.009Z,3.89
2022-11-30T04:04:24.553Z,3.89
2022-11-30T04:06:55.125Z,3.87
2022-11-30T04:09:24.588Z,3.87
2022-11-30T04:11:52.665Z,3.87
2022-11-30T04:14:20.800Z,3.85
2022-11-30T04:16:49.312Z,3.84
2022-11-30T04:19:19.419Z,3.82
2022-11-30T04:21:49.141Z,3.84
2022-11-30T04:24:18.728Z,3.82
2022-11-30T04:26:46.970Z,3.84
2022-11-30T04:29:15.296Z,3.81
2022-11-30T04:31:45.137Z,3.81
2022-11-30T04:34:13.848Z,3.81
2022-11-30T04:36:41.863Z,3.80
2022-11-30T04:39:13.346Z,3.80
2022-11-30T04:41:41.670Z,3.80
2022-11-30T04:44:12.653Z,3.77
2022-11-30T04:46:40.995Z,3.80
2022-11-30T04:49:09.077Z,3.80
2022-11-30T04:51:38.548Z,3.77
2022-11-30T04:54:07.400Z,3.81
2022-11-30T04:56:37.394Z,3.78
2022-11-30T04:59:06.054Z,3.78
2022-11-30T05:01:35.410Z,3.77
2022-11-30T05:04:03.935Z,3.77
2022-11-30T05:06:32.530Z,3.78
2022-11-30T05:09:00.810Z,3.77
2022-11-30T05:11:29.264Z,3.75
2022-11-30T05:14:00.844Z,3.77
2022-11-30T05:16:29.124Z,3.75
2022-11-30T05:18:59.018Z,3.77
2022-11-30T05:21:28.181Z,3.75
2022-11-30T05:24:02.740Z,3.77
2022-11-30T05:26:30.749Z,3.77
2022-11-30T05:29:04.787Z,3.77
2022-11-30T05:31:34.275Z,3.77
2022-11-30T05:34:02.393Z,3.78
2022-11-30T05:36:30.527Z,3.82
2022-11-30T05:38:58.817Z,3.80
2022-11-30T05:41:27.035Z,3.78
2022-11-30T05:43:57.341Z,3.78
2022-11-30T05:46:26.947Z,3.77
2022-11-30T05:48:57.094Z,3.78
2022-11-30T05:51:25.092Z,3.77
2022-11-30T05:53:54.792Z,3.80
2022-11-30T05:56:23.356Z,3.77
2022-11-30T05:58:53.996Z,3.77
2022-11-30T06:01:24.174Z,3.77
2022-11-30T06:03:54.134Z,3.77
2022-11-30T06:06:22.735Z,3.77
2022-11-30T06:08:51.036Z,3.77
2022-11-30T06:11:19.336Z,3.77
2022-11-30T06:13:55.146Z,3.75
2022-11-30T06:16:24.403Z,3.74
2022-11-30T06:18:54.909Z,3.92
2022-11-30T06:21:24.906Z,4.06
2022-11-30T06:23:56.830Z,4.13
2022-11-30T06:26:26.298Z,4.26
2022-11-30T06:28:54.669Z,4.38
2022-11-30T06:31:24.250Z,4.50
2022-11-30T06:33:52.622Z,4.42
2022-11-30T06:36:28.043Z,4.39
2022-11-30T06:39:00.701Z,4.35
2022-11-30T06:41:30.109Z,4.38
2022-11-30T06:43:58.345Z,4.32
2022-11-30T06:46:27.365Z,4.43
2022-11-30T06:48:57.655Z,4.22
2022-11-30T06:51:29.489Z,4.13
2022-11-30T06:53:57.571Z,4.01
2022-11-30T06:56:28.846Z,3.97
2022-11-30T06:58:57.308Z,3.94
2022-11-30T07:01:26.604Z,3.92
2022-11-30T07:03:55.052Z,3.88
2022-11-30T07:06:25.595Z,3.84
2022-11-30T07:08:55.414Z,3.78
2022-11-30T07:11:23.435Z,3.78
2022-11-30T07:13:51.509Z,3.74
2022-11-30T07:16:20.130Z,3.75
2022-11-30T07:18:48.206Z,3.74
2022-11-30T07:21:19.183Z,3.70
2022-11-30T07:24:05.174Z,3.68
2022-11-30T07:26:36.214Z,3.68
2022-11-30T07:29:06.485Z,3.68
2022-11-30T07:31:36.463Z,3.68
2022-11-30T07:34:06.769Z,3.68
2022-11-30T07:36:35.349Z,3.67
2022-11-30T07:39:04.216Z,3.66
2022-11-30T07:41:33.809Z,3.67
2022-11-30T07:44:02.319Z,3.68
2022-11-30T07:46:33.764Z,3.67
2022-11-30T07:49:02.839Z,3.68
2022-11-30T07:51:31.325Z,3.70
2022-11-30T07:54:01.936Z,3.70
2022-11-30T07:56:33.862Z,3.70
2022-11-30T07:59:04.333Z,3.70
2022-11-30T08:01:42.818Z,3.71
2022-11-30T08:04:17.822Z,3.70
2022-11-30T08:06:45.910Z,3.68
2022-11-30T08:09:20.352Z,3.73
2022-11-30T08:11:49.951Z,3.71
2022-11-30T08:14:19.971Z,3.71
2022-11-30T08:16:49.112Z,3.74
2022-11-30T08:19:17.316Z,3.75
2022-11-30T08:21:45.940Z,3.78
2022-11-30T08:24:21.631Z,3.78
2022-11-30T08:26:52.300Z,3.78
2022-11-30T08:29:21.986Z,3.80
2022-11-30T08:31:50.505Z,3.80
2022-11-30T08:34:18.537Z,3.80
2022-11-30T08:36:55.371Z,3.80
2022-11-30T08:39:24.428Z,3.80
2022-11-30T08:41:57.612Z,3.85
2022-11-30T08:44:27.205Z,3.87
2022-11-30T08:46:55.346Z,3.88
2022-11-30T08:49:26.604Z,3.91
2022-11-30T08:54:47.575Z,3.92
2022-11-30T08:57:17.939Z,3.95
2022-11-30T08:59:48.083Z,3.98
2022-11-30T09:02:18.585Z,4.01
2022-11-30T09:04:49.282Z,4.05
2022-11-30T09:07:19.833Z,4.06
2022-11-30T09:09:50.539Z,4.10
2022-11-30T09:12:18.835Z,4.10
2022-11-30T09:14:55.854Z,4.15
2022-11-30T09:17:26.058Z,4.20
2022-11-30T09:19:54.911Z,4.25
2022-11-30T09:22:24.132Z,4.30
2022-11-30T09:24:53.857Z,4.32
2022-11-30T09:27:30.290Z,4.35
2022-11-30T09:29:59.926Z,4.40
2022-11-30T09:32:29.053Z,4.47
2022-11-30T09:34:57.151Z,4.49
2022-11-30T09:37:25.915Z,4.52
2022-11-30T09:39:53.975Z,4.54
2022-11-30T09:42:39.791Z,4.61
2022-11-30T09:45:14.955Z,4.64
2022-11-30T09:48:07.897Z,4.63
2022-11-30T09:50:39.830Z,4.67
2022-11-30T09:53:13.978Z,4.74
2022-11-30T09:55:43.908Z,4.81
2022-11-30T09:58:22.921Z,4.85
2022-11-30T10:00:52.276Z,4.85
2022-11-30T10:03:23.613Z,4.89
2022-11-30T10:06:16.557Z,4.91
2022-11-30T10:08:57.321Z,4.91
2022-11-30T10:11:35.155Z,4.95
2022-11-30T10:14:17.806Z,4.99
2022-11-30T10:16:55.779Z,5.08
2022-11-30T10:19:42.369Z,5.11
2022-11-30T10:22:15.576Z,5.16
2022-11-30T10:24:58.086Z,5.19
2022-11-30T10:27:30.877Z,5.22
2022-11-30T10:30:00.289Z,5.28
2022-11-30T10:32:37.119Z,5.35
2022-11-30T10:35:17.721Z,5.39
2022-11-30T10:37:48.773Z,5.45
2022-11-30T10:40:22.181Z,5.46
2022-11-30T10:42:55.137Z,5.50
2022-11-30T10:45:28.045Z,5.57
2022-11-30T10:48:02.770Z,5.59
2022-11-30T10:50:39.227Z,5.60
2022-11-30T10:53:07.290Z,5.66
2022-11-30T10:55:37.732Z,5.67
2022-11-30T10:58:13.198Z,5.74
2022-11-30T11:00:41.394Z,5.77
2022-11-30T11:03:31.056Z,5.73
2022-11-30T11:06:09.377Z,5.77
2022-11-30T11:08:37.591Z,5.80
2022-11-30T11:11:07.058Z,5.78
2022-11-30T11:13:39.943Z,5.78
2022-11-30T11:16:10.103Z,5.82
2022-11-30T11:18:54.102Z,5.80
2022-11-30T11:21:23.793Z,5.83
2022-11-30T11:23:52.955Z,5.87
2022-11-30T11:26:35.010Z,5.87
2022-11-30T11:29:03.397Z,5.90
2022-11-30T11:31:36.983Z,5.95
2022-11-30T11:34:05.993Z,5.94
2022-11-30T11:36:36.856Z,5.97
2022-11-30T11:39:25.606Z,6.04
2022-11-30T11:41:55.118Z,6.04
2022-11-30T11:44:25.857Z,6.00
2022-11-30T11:46:56.454Z,5.94
2022-11-30T11:49:25.866Z,5.98
2022-11-30T11:52:01.451Z,5.94
2022-11-30T11:54:32.441Z,5.93
2022-11-30T11:57:01.846Z,5.90
2022-11-30T11:59:39.100Z,5.91
2022-11-30T12:02:15.449Z,5.90
2022-11-30T12:04:47.713Z,5.90
2022-11-30T12:07:19.398Z,5.80
2022-11-30T12:10:28.218Z,5.84
2022-11-30T12:12:57.053Z,6.07
2022-11-30T12:15:27.880Z,6.22
2022-11-30T12:18:02.384Z,6.31
2022-11-30T12:20:37.266Z,6.31
2022-11-30T12:23:21.244Z,6.32
2022-11-30T12:25:55.336Z,6.25
2022-11-30T12:28:28.403Z,6.15
2022-11-30T12:31:10.786Z,6.05
2022-11-30T12:33:50.653Z,5.97
2022-11-30T12:36:24.101Z,5.98
2022-11-30T12:38:59.365Z,6.00
2022-11-30T12:41:32.845Z,5.94
2022-11-30T12:44:09.967Z,5.89
2022-11-30T12:46:42.632Z,5.89
2022-11-30T12:49:21.327Z,5.89
2022-11-30T12:51:55.153Z,5.86
2022-11-30T12:54:29.792Z,5.93
2022-11-30T12:57:02.934Z,5.93
2022-11-30T12:59:36.870Z,5.91
2022-11-30T13:02:25.549Z,5.93
2022-11-30T13:04:58.674Z,5.95
2022-11-30T13:07:30.556Z,5.98
2022-11-30T13:10:04.123Z,6.03
2022-11-30T13:12:36.699Z,6.05
2022-11-30T13:15:12.430Z,6.07
2022-11-30T13:17:43.958Z,6.13
2022-11-30T13:20:20.663Z,6.13
2022-11-30T13:22:52.064Z,6.11
2022-11-30T13:25:51.904Z,6.10
2022-11-30T13:28:18.307Z,6.05
2022-11-30T13:30:51.593Z,6.03
2022-11-30T13:33:38.986Z,6.00
2022-11-30T13:36:08.258Z,5.95
2022-11-30T13:38:37.824Z,5.94
2022-11-30T13:41:07.542Z,5.87
2022-11-30T13:43:37.056Z,5.83
2022-11-30T13:46:08.863Z,5.76
2022-11-30T13:48:39.960Z,5.71
2022-11-30T13:51:08.318Z,5.66
2022-11-30T13:53:38.635Z,5.60
2022-11-30T13:56:34.907Z,5.59
2022-11-30T13:59:36.136Z,5.52
2022-11-30T14:02:43.064Z,5.53
2022-11-30T14:05:37.836Z,5.50
2022-11-30T14:08:18.591Z,5.50
2022-11-30T14:10:48.423Z,5.46
2022-11-30T14:13:28.764Z,5.46
2022-11-30T14:15:59.917Z,5.38
2022-11-30T14:18:44.090Z,5.32
2022-11-30T14:21:19.754Z,5.26
2022-11-30T14:23:55.244Z,5.18
2022-11-30T14:26:26.755Z,5.12
2022-11-30T14:28:59.791Z,5.04
2022-11-30T14:31:30.957Z,4.99
2022-11-30T14:34:01.975Z,4.88
2022-11-30T14:36:36.650Z,4.76
2022-11-30T14:39:04.865Z,4.67
2022-11-30T14:41:32.800Z,4.56
2022-11-30T14:44:02.954Z,4.50
2022-11-30T14:46:33.595Z,4.36
2022-11-30T14:49:13.496Z,4.25
2022-11-30T14:51:44.765Z,4.12
2022-11-30T14:54:37.733Z,3.92
2022-11-30T14:57:10.226Z,3.80
2022-11-30T14:59:46.496Z,3.66
2022-11-30T15:02:22.794Z,3.53
2022-11-30T15:04:53.192Z,3.43
2022-11-30T15:07:24.032Z,3.33
2022-11-30T15:10:02.149Z,3.26
2022-11-30T15:12:30.397Z,3.10
2022-11-30T15:15:22.561Z,3.01
2022-11-30T15:17:57.915Z,2.91
2022-11-30T15:20:30.320Z,2.81
2022-11-30T15:23:00.780Z,2.66
2022-11-30T15:25:34.247Z,2.55
2022-11-30T15:28:04.520Z,2.43
2022-11-30T15:30:33.473Z,2.33
2022-11-30T15:33:01.407Z,2.20
2022-11-30T15:35:43.881Z,2.13
2022-11-30T15:38:21.360Z,2.06
2022-11-30T15:40:54.517Z,2.02
2022-11-30T15:43:25.838Z,1.96
2022-11-30T15:45:55.672Z,1.87
2022-11-30T15:48:29.581Z,1.83
2022-11-30T15:50:57.609Z,1.79
2022-11-30T15:53:31.767Z,1.78
2022-11-30T15:56:01.692Z,1.73
2022-11-30T15:58:44.911Z,1.75
2022-11-30T16:01:16.849Z,1.75
2022-11-30T16:04:06.034Z,1.71
2022-11-30T16:06:36.848Z,1.71
2022-11-30T16:09:17.549Z,1.71
2022-11-30T16:11:45.728Z,1.71
2022-11-30T16:14:16.716Z,1.62
2022-11-30T16:17:14.477Z,1.62
2022-11-30T16:19:42.803Z,1.59
2022-11-30T16:22:13.080Z,1.54
2022-11-30T16:24:45.140Z,1.45
2022-11-30T16:27:19.817Z,1.35
2022-11-30T16:29:52.686Z,1.34
2022-11-30T16:32:21.030Z,1.30
2022-11-30T16:34:49.263Z,1.26
2022-11-30T16:37:17.198Z,1.20
2022-11-30T16:39:47.206Z,1.22
2022-11-30T16:42:15.527Z,1.20
2022-11-30T16:44:43.582Z,1.23
2022-11-30T16:47:11.720Z,1.19
2022-11-30T16:49:39.740Z,1.19
2022-11-30T16:52:09.595Z,1.19
2022-11-30T16:54:37.572Z,1.16
2022-11-30T16:57:08.211Z,1.13
2022-11-30T16:59:42.021Z,1.10
2022-11-30T17:02:16.585Z,1.08
2022-11-30T17:04:44.623Z,1.06
2022-11-30T17:07:12.610Z,1.04
2022-11-30T17:09:40.609Z,1.01
2022-11-30T17:12:10.900Z,1.03
2022-11-30T17:14:39.019Z,1.08
2022-11-30T17:17:07.076Z,1.07
2022-11-30T17:19:35.131Z,1.13
2022-11-30T17:22:03.751Z,1.08
2022-11-30T17:24:31.725Z,1.08
2022-11-30T17:27:00.290Z,1.10
2022-11-30T17:29:29.589Z,1.06
2022-11-30T17:31:57.659Z,1.06
2022-11-30T17:34:25.601Z,1.04
2022-11-30T17:36:56.871Z,1.03
2022-11-30T17:39:25.117Z,1.08
2022-11-30T17:41:53.100Z,1.06
2022-11-30T17:44:21.107Z,1.07
2022-11-30T17:46:50.385Z,1.07
2022-11-30T17:49:18.365Z,1.08
2022-11-30T17:51:46.407Z,1.13
2022-11-30T17:54:14.506Z,1.12
2022-11-30T17:56:43.416Z,1.14
2022-11-30T17:59:11.463Z,1.20
2022-11-30T18:01:40.361Z,1.19
2022-11-30T18:04:09.717Z,1.20
2022-11-30T18:06:37.680Z,1.22
2022-11-30T18:09:05.659Z,1.20
2022-11-30T18:11:33.700Z,1.20
2022-11-30T18:14:03.381Z,1.20
2022-11-30T18:16:51.408Z,1.20
2022-11-30T18:19:21.984Z,1.22
2022-11-30T18:21:49.909Z,1.20
2022-11-30T18:24:21.191Z,1.22
2022-11-30T18:26:53.079Z,1.22
2022-11-30T18:29:21.066Z,1.22
2022-11-30T18:31:50.236Z,1.24
2022-11-30T18:34:18.414Z,1.26
2022-11-30T18:36:47.664Z,1.27
2022-11-30T18:39:15.597Z,1.31
2022-11-30T18:41:43.859Z,1.33
2022-11-30T18:44:11.906Z,1.31
2022-11-30T18:46:39.954Z,1.28
2022-11-30T18:49:07.934Z,1.28
2022-11-30T18:51:36.003Z,1.30
2022-11-30T18:54:06.991Z,1.33
2022-11-30T18:56:37.025Z,1.33
2022-11-30T18:59:06.143Z,1.30
2022-11-30T19:01:34.300Z,1.30
2022-11-30T19:04:03.516Z,1.31
2022-11-30T19:06:33.079Z,1.27
2022-11-30T19:09:02.602Z,1.27
2022-11-30T19:11:32.899Z,1.22
2022-11-30T19:14:01.332Z,1.20
2022-11-30T19:16:30.397Z,1.17
2022-11-30T19:19:00.528Z,1.16
2022-11-30T19:21:28.651Z,1.16
2022-11-30T19:23:57.538Z,1.16
2022-11-30T19:26:27.900Z,1.20
2022-11-30T19:28:58.108Z,1.23
2022-11-30T19:31:26.917Z,1.23
2022-11-30T19:33:56.174Z,1.17
2022-11-30T19:36:26.653Z,1.16
2022-11-30T19:38:54.968Z,1.20
2022-11-30T19:41:22.992Z,1.19
2022-11-30T19:44:01.008Z,1.20
2022-11-30T19:46:32.989Z,1.24
2022-11-30T19:49:02.373Z,1.23
2022-11-30T19:51:31.333Z,1.24
2022-11-30T19:54:00.156Z,1.22
2022-11-30T19:56:29.151Z,1.23
2022-11-30T19:59:02.716Z,1.19
2022-11-30T20:01:35.404Z,1.20
2022-11-30T20:04:04.608Z,1.20
2022-11-30T20:06:35.773Z,1.17
2022-11-30T20:09:04.249Z,1.14
2022-11-30T20:11:32.750Z,1.10
2022-11-30T20:14:00.890Z,1.01
2022-11-30T20:16:29.389Z,0.99
2022-11-30T20:19:01.106Z,1.00
2022-11-30T20:21:30.438Z,0.99
2022-11-30T20:23:59.878Z,0.99
2022-11-30T20:26:30.066Z,0.90
2022-11-30T20:28:59.183Z,0.94
2022-11-30T20:31:28.634Z,0.92
2022-11-30T20:33:56.598Z,0.94
2022-11-30T20:36:25.954Z,0.96
2022-11-30T20:38:54.046Z,1.00
2022-11-30T20:41:23.360Z,1.01
2022-11-30T20:43:51.980Z,1.00
2022-11-30T20:46:21.525Z,0.97
2022-11-30T20:49:12.723Z,0.99
2022-11-30T20:51:42.207Z,0.99
2022-11-30T20:54:11.135Z,0.99
2022-11-30T20:56:39.679Z,0.97
2022-11-30T20:59:09.593Z,0.99
2022-11-30T21:01:37.708Z,0.99
2022-11-30T21:04:05.858Z,0.99
2022-11-30T21:06:34.129Z,1.01
2022-11-30T21:09:03.638Z,1.01
2022-11-30T21:11:32.174Z,1.01
2022-11-30T21:14:00.389Z,1.00
2022-11-30T21:16:29.677Z,1.00
2022-11-30T21:18:59.086Z,0.97
2022-11-30T21:21:30.473Z,0.97
2022-11-30T21:23:59.892Z,0.97
2022-11-30T21:26:30.777Z,0.96
2022-11-30T21:29:01.134Z,0.97
2022-11-30T21:31:29.530Z,0.92
2022-11-30T21:33:57.576Z,0.86
2022-11-30T21:36:25.590Z,0.89
2022-11-30T21:39:04.513Z,0.87
2022-11-30T21:41:35.403Z,0.89
2022-11-30T21:44:03.427Z,0.87
2022-11-30T21:46:31.454Z,0.86
2022-11-30T21:48:59.697Z,0.87
2022-11-30T21:51:29.493Z,0.86
2022-11-30T21:53:59.198Z,0.83
2022-11-30T21:56:28.576Z,0.85
2022-11-30T21:58:58.571Z,0.85
2022-11-30T22:01:29.157Z,0.87
2022-11-30T22:03:58.460Z,0.89
2022-11-30T22:06:27.841Z,0.90
2022-11-30T22:08:57.469Z,0.93
2022-11-30T22:11:25.644Z,0.86
2022-11-30T22:13:54.818Z,0.83
2022-11-30T22:16:29.931Z,0.80
2022-11-30T22:19:02.386Z,0.80
2022-11-30T22:21:31.549Z,0.79
2022-11-30T22:24:00.700Z,0.79
2022-11-30T22:26:30.270Z,0.79
2022-11-30T22:28:59.484Z,0.77
2022-11-30T22:31:30.978Z,0.77
2022-11-30T22:33:59.061Z,0.68
2022-11-30T22:36:29.713Z,0.65
2022-11-30T22:38:58.942Z,0.62
2022-11-30T22:41:27.618Z,0.61
2022-11-30T22:43:56.343Z,0.59
2022-11-30T22:46:25.757Z,0.59
2022-11-30T22:48:55.648Z,0.58
2022-11-30T22:51:25.113Z,0.55
2022-11-30T22:53:54.078Z,0.56
2022-11-30T22:56:24.112Z,0.54
2022-11-30T22:58:54.156Z,0.51
2022-11-30T23:01:24.577Z,0.49
2022-11-30T23:03:56.396Z,0.54
2022-11-30T23:06:25.282Z,0.52
2022-11-30T23:08:53.939Z,0.52
2022-11-30T23:11:24.228Z,0.49
2022-11-30T23:13:52.795Z,0.52
2022-11-30T23:16:21.630Z,0.46
2022-11-30T23:18:51.471Z,0.45
2022-11-30T23:21:22.964Z,0.49
2022-11-30T23:23:51.146Z,0.51
2022-11-30T23:26:21.079Z,0.45
2022-11-30T23:28:50.797Z,0.44
2022-11-30T23:31:34.571Z,0.41
2022-11-30T23:34:06.164Z,0.45
2022-11-30T23:36:36.387Z,0.44
2022-11-30T23:39:06.374Z,0.46
2022-11-30T23:41:34.635Z,0.48
2022-11-30T23:44:02.860Z,0.45
2022-11-30T23:46:30.927Z,0.49
2022-11-30T23:48:58.916Z,0.46
2022-11-30T23:51:27.216Z,0.45
2022-11-30T23:53:56.547Z,0.45
2022-11-30T23:56:24.883Z,0.46
2022-11-30T23:58:53.270Z,0.40
